• Join FlightAware (Why Join?)
  • Login
  • US Flag 
02:59PM EDT


 

Airport Tracker/Info


-or-


 

Live Flight TrackerFlight Track Log ✈ AAY800 ✈ 08-Jun-2014 ✈ KPIE - KTOL

Flight Track Log - Related Links

Times and Time Zones

All times are in EDT time to prevent confusion due to time zone crossing. See the AAY800 flight status page for this flight to view local times or setup timezone preferences in your user account.

Time Position Orientation Groundspeed Altitude Reporting Facility
EDT Latitude Longitude Course Direction KTS MPH feet Rate Location/Type
06:33AM 27.9333 -82.6833 319° Northwest 191 220 600  Level Tampa TRACON
06:33AM 27.9500 -82.7000 345° North 154 177 1,800 1,560 Climbing Tampa TRACON
06:34AM 28.0000 -82.6667 30° Northeast 219 252 3,000 2,100 Climbing Tampa TRACON
06:40AM 28.5083 -82.6011 North 352 405 16,900 2,220 Climbing FlightAware ADS-B (KMCO)
06:41AM 28.5726 -82.5995 North 360 414 18,100 1,560 Climbing FlightAware ADS-B (KMCO)
06:42AM 28.6458 -82.5978 North 376 433 19,100 1,500 Climbing FlightAware ADS-B (KMCO)
06:43AM 28.8137 -82.5842 North 397 457 21,500 1,380 Climbing FlightAware ADS-B (KMCO)
06:45AM 28.9768 -82.5677 North 419 482 23,300 1,260 Climbing FlightAware ADS-B (KMCO)
06:45AM 29.0560 -82.5599 North 420 483 24,300 1,500 Climbing FlightAware ADS-B (KMCO)
06:46AM 29.1238 -82.5532 North 423 487 25,200 1,320 Climbing FlightAware ADS-B (KMCO)
06:47AM 29.1999 -82.5457 North 428 493 26,000 1,080 Climbing FlightAware ADS-B (KMCO)
06:48AM 29.3195 -82.5337 North 438 504 27,000 1,020 Climbing FlightAware ADS-B (KMCO)
06:48AM 29.4146 -82.5240 North 443 510 27,900 900 Climbing FlightAware ADS-B (KMCO)
06:49AM 29.4930 -82.5163 North 451 519 28,300 840 Climbing FlightAware ADS-B (KMCO)
06:50AM 29.6255 -82.5028 North 456 525 29,400 960 Climbing FlightAware ADS-B (KMCO)
06:51AM 29.7085 -82.4944 North 460 529 30,000 1,020 Climbing FlightAware ADS-B (KMCO)
06:52AM 29.8353 -82.4818 North 460 529 31,100 1,020 Climbing FlightAware ADS-B (KMCO)
06:52AM 29.9215 -82.4725 North 458 527 31,800 960 Climbing FlightAware ADS-B (KMCO)
06:53AM 29.9621 -82.4602 20° North 464 534 32,100 900 Climbing FlightAware ADS-B (KMCO)
06:53AM 30.0419 -82.4247 21° North 466 536 32,700 900 Climbing FlightAware ADS-B (KMCO)
06:54AM 30.1169 -82.3917 21° North 464 534 33,300 1,080 Climbing FlightAware ADS-B (KMCO)
06:55AM 30.2056 -82.3500 22° Northeast 459 528 34,200 1,020 Climbing FlightAware ADS-B (KMCO)
06:55AM 30.2820 -82.3137 24° Northeast 459 528 34,800 840 Climbing FlightAware ADS-B (KMCO)
06:56AM 30.3304 -82.2890 24° Northeast 460 529 35,300 720 Climbing FlightAware ADS-B (KMCO)
06:57AM 30.4736 -82.2153 24° Northeast 459 528 36,000 240 Climbing Jacksonville Center
07:03AM 31.1407 -81.8865 23° Northeast 450 518 37,000 120 Climbing FlightAware ADS-B (KLHW)
07:04AM 31.2153 -81.8644 North 442 509 37,000  Level FlightAware ADS-B (KLHW)
07:04AM 31.2582 -81.8647 359° North 441 507 37,000  Level FlightAware ADS-B (KLHW)
07:04AM 31.2952 -81.8648 North 441 507 37,000  Level FlightAware ADS-B (KLHW)
07:05AM 31.3394 -81.8647 360° North 439 505 37,000 60 Level FlightAware ADS-B (KLHW)
07:06AM 31.4640 -81.8656 360° North 438 504 37,100  Climbing FlightAware ADS-B (KLHW)
07:06AM 31.5057 -81.8661 360° North 432 497 37,000 -120 Descending FlightAware ADS-B (KLHW)
07:07AM 31.5956 -81.8672 359° North 431 496 37,000  Level FlightAware ADS-B (KLHW)
07:07AM 31.6721 -81.8686 359° North 432 497 37,000  Level FlightAware ADS-B (KLHW)
07:09AM 31.8483 -81.8716 359° North 438 504 37,000  Level FlightAware ADS-B (KLHW)
07:13AM 32.3184 -81.8794 359° North 444 511 37,000  Level FlightAware ADS-B (KLHW)
07:13AM 32.4286 -81.8813 359° North 445 512 37,000  Level FlightAware ADS-B (KLHW)
07:14AM 32.5250 -81.8833 359° North 433 498 37,000  Level Atlanta Center
07:15AM 32.6481 -81.8828 360° North 438 504 37,000  Level Atlanta Center
07:16AM 32.7611 -81.8872 358° North 438 504 37,000  Level Atlanta Center
07:17AM 32.8864 -81.8917 358° North 438 504 37,000  Level Atlanta Center
07:18AM 33.0117 -81.8936 359° North 438 504 37,000  Level Atlanta Center
07:19AM 33.1347 -81.8931 360° North 438 504 37,000  Level Atlanta Center
07:25AM 33.8797 -81.9063 359° North 456 525 37,000  Level FlightAware ADS-B (KCDN)
07:26AM 33.9475 -81.9074 359° North 456 525 37,000  Level FlightAware ADS-B (KCDN)
07:26AM 34.0167 -81.9087 359° North 457 526 37,000  Level FlightAware ADS-B (KCDN)
07:27AM 34.0818 -81.9098 359° North 459 528 37,000  Level FlightAware ADS-B (KCDN)
07:27AM 34.1689 -81.9114 359° North 461 531 37,000  Level FlightAware ADS-B (KCDN)
07:30AM 34.4778 -81.9168 359° North 462 532 37,000  Level FlightAware ADS-B (KCDN)
07:30AM 34.5610 -81.9183 359° North 463 533 37,000  Level FlightAware ADS-B (KCDN)
07:31AM 34.6547 -81.9199 359° North 464 534 37,000  Level FlightAware ADS-B (KCDN)
07:32AM 34.7555 -81.9218 359° North 465 535 37,000  Level FlightAware ADS-B (KCDN)
07:33AM 34.9100 -81.9245 359° North 466 536 37,000  Level FlightAware ADS-B (KCDN)
07:34AM 35.0514 -81.9331 359° North 460 529 37,000  Level Atlanta Center
07:35AM 35.1767 -81.9475 355° North 460 529 37,000  Level Atlanta Center
07:36AM 35.3064 -81.9644 354° North 460 529 37,000  Level Atlanta Center
07:37AM 35.4319 -81.9792 355° North 460 529 37,000  Level Atlanta Center
07:38AM 35.5594 -81.9939 355° North 465 535 37,000  Level Atlanta Center
07:39AM 35.6869 -82.0111 354° North 465 535 37,000  Level Atlanta Center
07:40AM 35.8247 -82.0283 354° North 465 535 37,000  Level Atlanta Center
07:41AM 35.9544 -82.0431 355° North 465 535 37,000  Level Atlanta Center
07:42AM 36.0797 -82.0578 355° North 465 535 37,000  Level Atlanta Center
07:43AM 36.2031 -82.0728 354° North 457 526 37,000  Level Atlanta Center
07:44AM 36.3158 -82.0831 356° North 457 526 37,000  Level Atlanta Center
07:47AM 36.6269 -82.1233 354° North 455 524 37,000  Level Indianapolis Center
07:48AM 36.7519 -82.1389 354° North 455 524 37,000  Level Indianapolis Center
07:49AM 36.9000 -82.1561 355° North 455 524 37,000  Level Indianapolis Center
07:50AM 37.0239 -82.1728 354° North 452 520 37,000  Level Indianapolis Center
07:51AM 37.1483 -82.1883 354° North 452 520 37,000  Level Indianapolis Center
07:52AM 37.2733 -82.2050 354° North 452 520 37,000  Level Indianapolis Center
07:53AM 37.3953 -82.2381 348° North 448 516 37,100  Climbing Indianapolis Center
07:54AM 37.5164 -82.2761 346° North 448 516 37,100 -60 Level Indianapolis Center
07:55AM 37.6356 -82.3158 345° North 447 514 37,000 -60 Descending Indianapolis Center
07:56AM 37.7533 -82.3544 345° North 441 507 37,000  Level Indianapolis Center
07:57AM 37.8725 -82.3919 346° North 441 507 37,000  Level Indianapolis Center
08:03AM 38.6251 -82.6440 345° North 456 525 37,000  Level FlightAware ADS-B (KPMH)
08:03AM 38.6900 -82.6660 345° North 455 524 37,000  Level FlightAware ADS-B (KPMH)
08:04AM 38.7680 -82.6924 345° North 454 522 37,000 60 Level FlightAware ADS-B (KPMH)
08:05AM 38.8270 -82.7123 345° North 453 521 37,100 -300 Climbing FlightAware ADS-B (KPMH)
08:05AM 38.8973 -82.7362 345° North 450 518 36,700 -840 Descending FlightAware ADS-B (KPMH)
08:06AM 38.9620 -82.7581 345° North 448 516 36,200 -960 Descending FlightAware ADS-B (KPMH)
08:06AM 39.0290 -82.7810 345° North 452 520 35,700 -960 Descending FlightAware ADS-B (KPMH)
08:07AM 39.0893 -82.8017 345° North 455 524 35,200 -1,020 Descending FlightAware ADS-B (KPMH)
08:07AM 39.1777 -82.8318 345° North 452 520 34,500 -1,020 Descending FlightAware ADS-B (KPMH)
08:08AM 39.2524 -82.8574 345° North 446 513 33,900 -960 Descending FlightAware ADS-B (KPMH)
08:09AM 39.3237 -82.8821 345° North 451 519 33,400 -960 Descending FlightAware ADS-B (KPMH)
08:09AM 39.3752 -82.8999 345° North 454 522 32,900 -1,080 Descending FlightAware ADS-B (KPMH)
08:10AM 39.4625 -82.9299 345° North 452 520 32,200 -1,020 Descending FlightAware ADS-B (KPMH)
08:11AM 39.5429 -82.9575 345° North 442 509 31,500 -900 Descending FlightAware ADS-B (KPMH)
08:11AM 39.6117 -82.9811 345° North 450 518 31,000 -960 Descending Indianapolis Center
08:12AM 39.7292 -83.0222 345° North 445 512 30,000 -960 Descending Indianapolis Center
08:13AM 39.8456 -83.0619 345° North 442 509 29,100 -960 Descending Indianapolis Center
08:14AM 39.9594 -83.1019 345° North 433 498 28,100 -1,080 Descending Indianapolis Center
08:15AM 40.0964 -83.1506 345° North 432 497 27,000 -1,200 Descending Indianapolis Center
08:16AM 40.2125 -83.1981 343° North 434 499 25,700 -1,140 Descending Indianapolis Center
08:17AM 40.3239 -83.2550 339° North 435 501 24,700 -960 Descending Indianapolis Center
08:18AM 40.4353 -83.3083 340° North 433 498 23,800 -840 Descending Indianapolis Center
08:19AM 40.5472 -83.3592 341° North 432 497 23,000 -900 Descending Indianapolis Center
08:20AM 40.6375 -83.3967 343° North 430 495 22,100 -1,800 Descending Cleveland Center
08:21AM 40.7689 -83.4533 342° North 418 481 19,600 -2,460 Descending Cleveland Center
08:22AM 40.8747 -83.4981 342° North 406 467 17,200 -2,400 Descending Cleveland Center
08:23AM 40.9778 -83.5425 342° North 389 448 14,700 -2,400 Descending Cleveland Center
08:24AM 41.0764 -83.5850 342° North 376 433 12,300 -1,920 Descending Cleveland Center
08:25AM 41.1542 -83.6183 342° North 331 381 10,900 -2,100 Descending Cleveland Center
08:26AM 41.2414 -83.6836 331° Northwest 300 345 8,100 -2,400 Descending Cleveland Center
08:27AM 41.3131 -83.7375 331° Northwest 298 343 6,100 -1,740 Descending Cleveland Center
08:28AM 41.3786 -83.7872 330° Northwest 276 318 4,600 -1,440 Descending Cleveland Center
08:29AM 41.4300 -83.8500 318° Northwest 270 311 3,200 -1,020 Descending Cleveland Center
08:30AM 41.4519 -83.9356 289° West 259 298 2,600 -480 Descending Cleveland Center
08:31AM 41.4875 -83.9944 309° West 233 268 2,300 -180 Descending Cleveland Center
08:32AM 41.5333 -83.9803 13° North 211 243 2,300 -120 Level Cleveland Center
08:34AM 41.5519 -83.9208 67° East 188 216 2,100 -480 Descending Cleveland Center
08:35AM 41.5683 -83.8717 66° East 168 193 1,400 -600 Descending Cleveland Center
08:36AM 41.5847 -83.8189 67° East 156 180 1,000 -420 Descending Cleveland Center